Time;durP1;ratioP1;P1;durP2;ratioP2;P2;SDS_P1;SDS_P2;PMS_P1;PMS_P2;Temp;Humidity;BMP_temperature;BMP_pressure;BME280_temperature;BME280_humidity;BME280_pressure;Samples;Min_cycle;Max_cycle;Signal;HPM_P1;HPM_P2
2022/11/24 00:01:46;;;;;;;7.97;6.13;;;;;;;;;;5074045;28;20465;-68
2022/11/24 00:04:38;;;;;;;8.10;6.67;;;;;;;;;;5076944;28;20453;-68
2022/11/24 00:07:29;;;;;;;8.80;6.40;;;;;;;;;;5071377;28;20444;-68
2022/11/24 00:10:27;;;;;;;7.83;6.40;;;;;;;;;;5069972;28;20445;-69
2022/11/24 00:13:20;;;;;;;8.07;6.43;;;;;;;;;;5069338;28;21048;-68
2022/11/24 00:16:15;;;;;;;7.00;5.90;;;;;;;;;;5076777;28;20496;-69
2022/11/24 00:19:06;;;;;;;7.93;6.40;;;;;;;;;;5078115;28;20541;-69
2022/11/24 00:21:57;;;;;;;7.10;6.20;;;;;;;;;;5074097;28;20478;-69
2022/11/24 00:24:49;;;;;;;8.17;6.63;;;;;;;;;;5074063;28;20457;-68
2022/11/24 00:27:40;;;;;;;7.07;6.37;;;;;;;;;;5076697;28;20540;-68
2022/11/24 00:30:29;;;;;;;8.50;6.93;;;;;;;;;;5077430;28;20491;-69
2022/11/24 00:33:20;;;;;;;10.67;6.67;;;;;;;;;;5074658;28;20488;-68
2022/11/24 00:36:14;;;;;;;6.93;6.23;;;;;;;;;;5076972;28;20568;-69
2022/11/24 00:39:09;;;;;;;6.50;5.90;;;;;;;;;;5078298;28;20442;-69
2022/11/24 00:41:59;;;;;;;6.83;6.10;;;;;;;;;;5069755;28;20485;-69
2022/11/24 00:44:51;;;;;;;9.40;6.30;;;;;;;;;;5075750;28;20456;-69
2022/11/24 00:47:40;;;;;;;7.93;6.73;;;;;;;;;;5075699;28;21098;-69
2022/11/24 00:50:30;;;;;;;8.97;6.53;;;;;;;;;;5068375;28;20454;-68
2022/11/24 00:53:28;;;;;;;6.90;6.20;;;;;;;;;;5072510;28;20573;-68
2022/11/24 00:56:22;;;;;;;8.97;5.90;;;;;;;;;;5068099;28;20504;-68
2022/11/24 00:59:13;;;;;;;9.60;7.13;;;;;;;;;;5068226;28;20469;-69
2022/11/24 01:02:07;;;;;;;8.10;6.73;;;;;;;;;;5070792;28;20818;-68
2022/11/24 01:05:00;;;;;;;7.17;6.47;;;;;;;;;;5075201;28;20542;-69
2022/11/24 01:07:51;;;;;;;6.60;5.97;;;;;;;;;;5068729;28;20527;-68
2022/11/24 01:10:46;;;;;;;8.47;6.53;;;;;;;;;;5066205;28;20487;-68
2022/11/24 01:13:39;;;;;;;8.17;6.30;;;;;;;;;;5068762;28;20493;-68
2022/11/24 01:16:29;;;;;;;6.93;6.10;;;;;;;;;;5075557;28;20494;-69
2022/11/24 01:19:29;;;;;;;8.57;6.03;;;;;;;;;;5077187;28;20474;-68
2022/11/24 01:22:26;;;;;;;9.37;7.00;;;;;;;;;;5073806;28;20838;-68
2022/11/24 01:25:29;;;;;;;6.93;6.23;;;;;;;;;;5069166;28;20598;-68
2022/11/24 01:28:20;;;;;;;8.80;6.67;;;;;;;;;;5071997;28;20492;-69
2022/11/24 01:31:09;;;;;;;8.33;6.73;;;;;;;;;;5072996;28;20504;-68
2022/11/24 01:33:57;;;;;;;8.97;7.10;;;;;;;;;;5078159;28;20584;-69
2022/11/24 01:36:49;;;;;;;8.87;6.90;;;;;;;;;;5068214;28;20448;-68
2022/11/24 01:39:41;;;;;;;11.30;7.30;;;;;;;;;;5069561;28;20750;-68
2022/11/24 01:42:37;;;;;;;7.53;6.80;;;;;;;;;;5070401;28;21042;-69
2022/11/24 01:45:39;;;;;;;8.03;7.23;;;;;;;;;;5069814;28;20462;-68
2022/11/24 01:48:31;;;;;;;10.00;7.53;;;;;;;;;;5075919;28;20525;-68
2022/11/24 01:51:22;;;;;;;7.77;6.97;;;;;;;;;;5069392;28;22912;-69
2022/11/24 01:54:15;;;;;;;7.80;6.70;;;;;;;;;;5067382;28;20450;-68
2022/11/24 01:57:14;;;;;;;10.00;7.00;;;;;;;;;;5066737;28;20455;-69
2022/11/24 02:00:08;;;;;;;9.63;7.40;;;;;;;;;;5070340;28;20540;-68
2022/11/24 02:03:06;;;;;;;9.93;6.83;;;;;;;;;;5070205;28;20650;-69
2022/11/24 02:05:59;;;;;;;7.70;6.67;;;;;;;;;;5077919;28;20446;-69
2022/11/24 02:08:59;;;;;;;7.70;6.90;;;;;;;;;;5067784;28;20459;-68
2022/11/24 02:11:55;;;;;;;8.87;6.90;;;;;;;;;;5066207;28;20477;-69
2022/11/24 02:14:49;;;;;;;8.40;6.43;;;;;;;;;;5067633;28;20464;-69
2022/11/24 02:17:41;;;;;;;8.63;7.17;;;;;;;;;;5071774;28;20654;-69
2022/11/24 02:20:33;;;;;;;8.90;7.00;;;;;;;;;;5064998;28;20972;-69
2022/11/24 02:23:38;;;;;;;6.60;6.00;;;;;;;;;;5070796;28;20482;-69
2022/11/24 02:26:35;;;;;;;7.13;6.43;;;;;;;;;;5071305;28;20461;-69
2022/11/24 02:29:26;;;;;;;9.50;6.10;;;;;;;;;;5071721;28;21252;-68
2022/11/24 02:32:18;;;;;;;9.77;7.60;;;;;;;;;;5070123;28;20476;-69
2022/11/24 02:35:08;;;;;;;8.97;6.77;;;;;;;;;;5075794;28;20449;-68
2022/11/24 02:38:00;;;;;;;7.77;6.43;;;;;;;;;;5074726;28;20470;-69
2022/11/24 02:40:50;;;;;;;8.07;6.90;;;;;;;;;;5070138;28;20519;-69
2022/11/24 02:43:47;;;;;;;10.10;6.57;;;;;;;;;;5068526;28;20552;-68
2022/11/24 02:46:36;;;;;;;9.13;7.07;;;;;;;;;;5064487;28;20461;-68
2022/11/24 02:49:25;;;;;;;6.33;5.77;;;;;;;;;;5074448;28;20446;-68
2022/11/24 02:52:17;;;;;;;8.13;6.73;;;;;;;;;;5066896;28;20485;-68
2022/11/24 02:55:09;;;;;;;7.40;6.70;;;;;;;;;;5068724;28;20453;-68
2022/11/24 02:57:58;;;;;;;7.77;6.07;;;;;;;;;;5071859;28;20530;-69
2022/11/24 03:00:53;;;;;;;7.60;6.63;;;;;;;;;;5069089;28;20474;-69
2022/11/24 03:03:41;;;;;;;7.57;6.77;;;;;;;;;;5068099;28;20553;-69
2022/11/24 03:06:30;;;;;;;7.63;6.47;;;;;;;;;;5078685;28;20544;-69
2022/11/24 03:09:27;;;;;;;8.47;6.43;;;;;;;;;;5068495;28;20513;-68
2022/11/24 03:12:17;;;;;;;7.10;6.40;;;;;;;;;;5071625;28;20482;-68
2022/11/24 03:15:11;;;;;;;8.47;6.20;;;;;;;;;;5077162;28;20898;-69
2022/11/24 03:18:11;;;;;;;7.23;6.53;;;;;;;;;;5076443;28;20572;-68
2022/11/24 03:21:03;;;;;;;9.70;6.20;;;;;;;;;;5077244;28;20486;-68
2022/11/24 03:23:54;;;;;;;7.17;6.47;;;;;;;;;;5077269;28;21348;-69
2022/11/24 03:26:47;;;;;;;7.30;6.60;;;;;;;;;;5077229;28;20439;-69
2022/11/24 03:29:37;;;;;;;8.33;6.50;;;;;;;;;;5078413;28;20788;-68
2022/11/24 03:32:30;;;;;;;7.20;6.07;;;;;;;;;;5101172;28;20552;-69
2022/11/24 03:35:22;;;;;;;10.20;6.97;;;;;;;;;;5105943;28;20449;-68
2022/11/24 03:38:16;;;;;;;10.43;6.83;;;;;;;;;;5082526;28;20466;-68
2022/11/24 03:41:05;;;;;;;6.97;6.30;;;;;;;;;;5080326;28;20468;-69
2022/11/24 03:43:57;;;;;;;7.23;6.53;;;;;;;;;;5077778;28;20515;-69
2022/11/24 03:46:46;;;;;;;8.10;6.97;;;;;;;;;;5077066;28;20544;-69
2022/11/24 03:49:37;;;;;;;9.83;6.50;;;;;;;;;;5079244;28;20844;-69
2022/11/24 03:52:30;;;;;;;7.43;6.53;;;;;;;;;;5078987;28;20545;-69
2022/11/24 03:55:21;;;;;;;8.47;7.40;;;;;;;;;;5077604;28;20468;-68
2022/11/24 03:58:12;;;;;;;8.23;6.97;;;;;;;;;;5076027;28;20469;-69
2022/11/24 04:01:06;;;;;;;7.87;6.13;;;;;;;;;;5076126;28;20545;-69
2022/11/24 04:03:54;;;;;;;10.80;6.30;;;;;;;;;;5070075;28;20543;-69
2022/11/24 04:06:46;;;;;;;8.07;6.00;;;;;;;;;;5074010;28;20456;-71
2022/11/24 04:09:39;;;;;;;7.10;6.50;;;;;;;;;;5082186;28;20477;-69
2022/11/24 04:12:45;;;;;;;7.37;6.27;;;;;;;;;;5095563;28;20541;-68
2022/11/24 04:15:39;;;;;;;7.40;6.40;;;;;;;;;;5101836;28;20510;-68
2022/11/24 04:18:31;;;;;;;8.47;7.10;;;;;;;;;;5104535;28;20474;-68
2022/11/24 04:21:20;;;;;;;7.90;6.67;;;;;;;;;;5094184;28;20464;-68
2022/11/24 04:24:13;;;;;;;7.10;6.50;;;;;;;;;;5069082;28;20472;-69
2022/11/24 04:27:09;;;;;;;7.30;6.60;;;;;;;;;;5078405;28;20454;-69
2022/11/24 04:30:03;;;;;;;8.07;7.00;;;;;;;;;;5078857;28;20947;-69
2022/11/24 04:33:02;;;;;;;6.77;6.03;;;;;;;;;;5076056;28;20478;-69
2022/11/24 04:35:59;;;;;;;7.10;5.90;;;;;;;;;;5081089;28;20457;-68
2022/11/24 04:38:48;;;;;;;7.90;5.97;;;;;;;;;;5084196;28;20578;-69
2022/11/24 04:41:57;;;;;;;7.10;6.00;;;;;;;;;;5082862;28;20489;-69
2022/11/24 04:44:49;;;;;;;7.33;6.30;;;;;;;;;;5078502;28;20457;-68
2022/11/24 04:47:39;;;;;;;8.03;6.10;;;;;;;;;;5085267;28;20446;-68
2022/11/24 04:50:28;;;;;;;7.10;6.30;;;;;;;;;;5082154;28;20457;-69
2022/11/24 04:53:17;;;;;;;7.17;6.50;;;;;;;;;;5074598;28;20500;-69
2022/11/24 04:56:10;;;;;;;7.20;6.50;;;;;;;;;;5079108;28;20524;-68
2022/11/24 04:59:01;;;;;;;10.03;6.60;;;;;;;;;;5079387;28;20473;-69
2022/11/24 05:02:01;;;;;;;7.37;6.20;;;;;;;;;;5077971;28;21105;-68
2022/11/24 05:04:49;;;;;;;6.70;6.07;;;;;;;;;;5077267;28;20441;-68
2022/11/24 05:07:41;;;;;;;8.70;6.50;;;;;;;;;;5080961;28;20934;-68
2022/11/24 05:10:39;;;;;;;10.10;6.43;;;;;;;;;;5079095;28;20452;-68
2022/11/24 05:13:30;;;;;;;8.27;6.37;;;;;;;;;;5076748;28;20469;-68
2022/11/24 05:16:19;;;;;;;9.23;8.13;;;;;;;;;;5069512;28;20469;-68
2022/11/24 05:19:16;;;;;;;9.37;6.77;;;;;;;;;;5077458;28;20529;-69
2022/11/24 05:22:09;;;;;;;7.30;6.20;;;;;;;;;;5069120;28;20495;-69
2022/11/24 05:25:01;;;;;;;9.03;7.20;;;;;;;;;;5069711;28;21011;-69
2022/11/24 05:27:52;;;;;;;8.97;6.33;;;;;;;;;;5076610;28;20498;-68
2022/11/24 05:30:46;;;;;;;9.07;6.33;;;;;;;;;;5078907;28;20473;-68
2022/11/24 05:33:39;;;;;;;9.80;6.57;;;;;;;;;;5077824;28;21001;-69
2022/11/24 05:39:38;;;;;;;9.87;7.03;;;;;;;;;;5077176;28;20481;-69
2022/11/24 05:42:40;;;;;;;9.77;6.40;;;;;;;;;;5067270;28;20513;-69
2022/11/24 05:45:34;;;;;;;8.03;6.57;;;;;;;;;;5067083;28;20565;-69
2022/11/24 05:48:23;;;;;;;8.50;6.37;;;;;;;;;;5072549;28;20840;-69
2022/11/24 05:51:12;;;;;;;9.10;6.40;;;;;;;;;;5073764;28;20484;-69
2022/11/24 05:54:06;;;;;;;9.53;6.60;;;;;;;;;;5074361;28;20436;-69
2022/11/24 05:56:58;;;;;;;7.97;6.37;;;;;;;;;;5073970;28;20441;-68
2022/11/24 05:59:47;;;;;;;8.17;6.80;;;;;;;;;;5070061;28;21051;-69
2022/11/24 06:02:46;;;;;;;10.17;7.03;;;;;;;;;;5065012;28;20923;-70
2022/11/24 06:05:35;;;;;;;9.50;6.73;;;;;;;;;;5074033;28;20465;-69
2022/11/24 06:08:30;;;;;;;7.40;6.00;;;;;;;;;;5075695;28;20837;-69
2022/11/24 06:11:21;;;;;;;9.00;6.87;;;;;;;;;;5076764;28;20592;-69
2022/11/24 06:14:23;;;;;;;9.00;6.93;;;;;;;;;;5070591;28;20454;-69
2022/11/24 06:17:13;;;;;;;8.67;6.97;;;;;;;;;;5076438;28;20438;-72
2022/11/24 06:20:08;;;;;;;8.77;7.00;;;;;;;;;;5074293;28;20467;-73
2022/11/24 06:23:02;;;;;;;9.00;7.30;;;;;;;;;;5067017;28;20908;-71
2022/11/24 06:25:53;;;;;;;8.80;6.60;;;;;;;;;;5071101;28;20468;-70
2022/11/24 06:28:45;;;;;;;12.30;7.07;;;;;;;;;;5079336;28;20591;-69
2022/11/24 06:31:37;;;;;;;8.63;7.00;;;;;;;;;;5069527;28;20477;-70
2022/11/24 06:34:32;;;;;;;8.70;7.17;;;;;;;;;;5073791;28;21822;-70
2022/11/24 06:37:22;;;;;;;12.33;7.33;;;;;;;;;;5075772;28;20972;-70
2022/11/24 06:40:14;;;;;;;9.10;7.23;;;;;;;;;;5078006;28;20488;-70
2022/11/24 06:43:04;;;;;;;11.73;7.77;;;;;;;;;;5057639;28;20485;-70
2022/11/24 06:45:54;;;;;;;8.27;7.47;;;;;;;;;;5050053;28;20458;-70
2022/11/24 06:48:42;;;;;;;7.93;6.93;;;;;;;;;;5035089;28;20467;-70
2022/11/24 06:51:31;;;;;;;10.50;6.93;;;;;;;;;;5062217;28;21120;-70
2022/11/24 06:54:22;;;;;;;9.13;7.10;;;;;;;;;;5067120;28;20453;-70
2022/11/24 06:57:11;;;;;;;8.20;7.00;;;;;;;;;;5072013;28;20793;-70
2022/11/24 06:59:59;;;;;;;8.30;6.73;;;;;;;;;;5059635;28;20473;-70
2022/11/24 07:02:58;;;;;;;8.53;6.53;;;;;;;;;;5062068;28;20989;-69
2022/11/24 07:05:47;;;;;;;8.67;6.73;;;;;;;;;;5056909;28;20560;-70
2022/11/24 07:08:37;;;;;;;10.33;7.47;;;;;;;;;;5055975;28;20463;-70
2022/11/24 07:11:26;;;;;;;12.03;6.80;;;;;;;;;;5062456;28;20860;-70
2022/11/24 07:14:14;;;;;;;10.87;6.80;;;;;;;;;;5067178;28;20451;-69
2022/11/24 07:17:06;;;;;;;10.73;6.90;;;;;;;;;;5060392;28;20452;-70
2022/11/24 07:19:59;;;;;;;11.20;7.43;;;;;;;;;;5063929;28;22147;-70
2022/11/24 07:22:53;;;;;;;9.60;7.47;;;;;;;;;;5067535;28;20480;-70
2022/11/24 07:25:42;;;;;;;7.93;7.13;;;;;;;;;;5066372;28;20815;-70
2022/11/24 07:28:30;;;;;;;8.90;7.50;;;;;;;;;;5059958;28;20444;-69
2022/11/24 07:31:20;;;;;;;9.70;7.10;;;;;;;;;;5069940;28;20485;-70
2022/11/24 07:34:09;;;;;;;9.67;7.27;;;;;;;;;;5075496;28;20545;-70
2022/11/24 07:36:59;;;;;;;8.33;7.53;;;;;;;;;;5071817;28;20544;-69
2022/11/24 07:39:48;;;;;;;7.37;6.60;;;;;;;;;;5063708;28;21001;-69
2022/11/24 07:42:38;;;;;;;10.70;7.40;;;;;;;;;;5069194;28;20484;-69
2022/11/24 07:45:26;;;;;;;12.20;7.77;;;;;;;;;;5070331;28;20515;-70
2022/11/24 07:48:15;;;;;;;9.93;8.13;;;;;;;;;;5066801;28;20689;-70
2022/11/24 07:51:04;;;;;;;7.87;7.07;;;;;;;;;;5068220;28;21112;-70
2022/11/24 07:53:54;;;;;;;9.03;7.43;;;;;;;;;;5062629;28;21262;-69
2022/11/24 07:56:43;;;;;;;9.57;8.30;;;;;;;;;;5070717;28;20445;-70
2022/11/24 07:59:31;;;;;;;9.53;7.97;;;;;;;;;;5071074;28;20446;-70
2022/11/24 08:02:20;;;;;;;10.37;7.80;;;;;;;;;;5057516;28;20561;-70
2022/11/24 08:05:09;;;;;;;10.00;7.60;;;;;;;;;;5069147;28;20854;-70
2022/11/24 08:08:00;;;;;;;9.17;7.90;;;;;;;;;;5081475;28;20442;-70
2022/11/24 08:10:55;;;;;;;11.60;7.90;;;;;;;;;;5085343;28;20499;-70
2022/11/24 08:13:44;;;;;;;11.20;8.07;;;;;;;;;;5080393;28;20475;-70
2022/11/24 08:16:32;;;;;;;12.53;8.17;;;;;;;;;;5062864;28;20455;-70
2022/11/24 08:19:22;;;;;;;9.90;8.13;;;;;;;;;;5075127;28;20465;-70
2022/11/24 08:22:11;;;;;;;11.83;8.00;;;;;;;;;;5068236;28;20543;-70
2022/11/24 08:24:59;;;;;;;13.53;8.93;;;;;;;;;;5072709;28;20469;-70
2022/11/24 08:27:49;;;;;;;12.30;9.60;;;;;;;;;;5074902;28;20445;-70
2022/11/24 08:30:38;;;;;;;10.87;8.20;;;;;;;;;;5066543;28;21249;-70
2022/11/24 08:33:29;;;;;;;11.27;9.10;;;;;;;;;;5068022;28;20465;-70
2022/11/24 08:36:20;;;;;;;12.23;8.93;;;;;;;;;;5065476;28;20460;-70
2022/11/24 08:39:11;;;;;;;10.73;8.37;;;;;;;;;;5074578;28;21230;-70
2022/11/24 08:41:59;;;;;;;14.90;9.30;;;;;;;;;;5066753;28;21009;-70
2022/11/24 08:44:49;;;;;;;10.53;8.57;;;;;;;;;;5065581;28;20541;-70
2022/11/24 08:47:52;;;;;;;13.43;8.90;;;;;;;;;;5053953;28;20449;-70
2022/11/24 08:50:42;;;;;;;10.40;7.60;;;;;;;;;;5060188;28;20541;-70
2022/11/24 08:53:33;;;;;;;15.10;8.80;;;;;;;;;;5066705;28;21069;-70
2022/11/24 08:56:25;;;;;;;11.43;8.70;;;;;;;;;;5075543;28;20458;-70
2022/11/24 08:59:17;;;;;;;12.60;9.50;;;;;;;;;;5076156;28;20468;-70
2022/11/24 09:02:07;;;;;;;11.67;8.30;;;;;;;;;;5074725;28;21070;-70
2022/11/24 09:04:56;;;;;;;9.97;8.10;;;;;;;;;;5059409;28;20477;-70
2022/11/24 09:07:46;;;;;;;12.50;8.10;;;;;;;;;;5067357;28;20457;-69
2022/11/24 09:10:35;;;;;;;14.40;9.17;;;;;;;;;;5069161;28;20501;-70
2022/11/24 09:13:23;;;;;;;13.73;9.30;;;;;;;;;;5068819;28;21303;-70
2022/11/24 09:16:14;;;;;;;13.27;9.13;;;;;;;;;;5070676;28;20461;-70
2022/11/24 09:19:08;;;;;;;10.00;8.10;;;;;;;;;;5069215;28;20607;-70
2022/11/24 09:21:57;;;;;;;11.80;8.97;;;;;;;;;;5064364;28;20477;-70
2022/11/24 09:24:46;;;;;;;11.93;8.93;;;;;;;;;;5065092;28;20534;-71
2022/11/24 09:27:34;;;;;;;10.40;8.80;;;;;;;;;;5063538;28;20450;-70
2022/11/24 09:30:23;;;;;;;10.50;9.17;;;;;;;;;;5068945;28;20597;-70
2022/11/24 09:33:12;;;;;;;10.43;8.57;;;;;;;;;;5050160;28;20462;-70
2022/11/24 09:36:02;;;;;;;13.50;9.00;;;;;;;;;;5064357;28;21084;-70
2022/11/24 09:38:53;;;;;;;13.03;8.47;;;;;;;;;;5061436;28;20576;-71
2022/11/24 09:41:58;;;;;;;16.80;9.33;;;;;;;;;;5068276;28;20473;-70
2022/11/24 09:45:05;;;;;;;17.10;9.67;;;;;;;;;;5069335;28;20464;-70
2022/11/24 09:47:57;;;;;;;9.40;8.10;;;;;;;;;;5074396;28;20461;-70
2022/11/24 09:50:47;;;;;;;15.47;9.90;;;;;;;;;;5061513;28;20462;-70
2022/11/24 09:53:39;;;;;;;11.93;8.80;;;;;;;;;;5064938;28;20474;-71
2022/11/24 09:56:29;;;;;;;13.17;8.87;;;;;;;;;;5070999;28;20450;-70
2022/11/24 09:59:19;;;;;;;16.47;8.77;;;;;;;;;;5058820;28;20484;-70
2022/11/24 10:02:11;;;;;;;12.03;9.10;;;;;;;;;;5067268;28;20973;-70
2022/11/24 10:04:59;;;;;;;14.67;9.60;;;;;;;;;;5072704;28;20452;-71
2022/11/24 10:07:55;;;;;;;13.17;8.67;;;;;;;;;;5058739;28;20615;-70
2022/11/24 10:10:49;;;;;;;13.90;9.10;;;;;;;;;;5064209;28;20584;-70
2022/11/24 10:13:52;;;;;;;13.17;9.30;;;;;;;;;;5061065;28;20469;-71
2022/11/24 10:16:47;;;;;;;11.67;8.43;;;;;;;;;;5071378;28;20452;-70
2022/11/24 10:19:40;;;;;;;11.20;8.17;;;;;;;;;;5062729;28;20453;-70
2022/11/24 10:22:36;;;;;;;9.93;7.83;;;;;;;;;;5058653;28;20537;-70
2022/11/24 10:25:26;;;;;;;12.53;8.83;;;;;;;;;;5064428;28;20475;-71
2022/11/24 10:28:16;;;;;;;14.27;9.40;;;;;;;;;;5054643;28;20491;-71
2022/11/24 10:31:18;;;;;;;9.90;7.97;;;;;;;;;;5070568;28;20470;-71
2022/11/24 10:34:13;;;;;;;12.53;7.90;;;;;;;;;;5084228;28;20825;-70
2022/11/24 10:37:03;;;;;;;13.93;8.00;;;;;;;;;;5077170;28;20458;-70
2022/11/24 10:39:56;;;;;;;13.03;8.80;;;;;;;;;;5084388;28;20469;-71
2022/11/24 10:42:48;;;;;;;11.50;7.70;;;;;;;;;;5081096;28;21366;-71
2022/11/24 10:45:39;;;;;;;10.60;7.53;;;;;;;;;;5063997;28;20479;-69
2022/11/24 10:48:29;;;;;;;14.23;7.97;;;;;;;;;;5061284;28;20458;-72
2022/11/24 10:51:31;;;;;;;11.50;7.63;;;;;;;;;;5063689;28;20473;-70
2022/11/24 10:54:21;;;;;;;17.07;9.00;;;;;;;;;;5064007;28;20891;-70
2022/11/24 10:57:09;;;;;;;15.67;8.13;;;;;;;;;;5063530;28;20456;-72
2022/11/24 10:59:58;;;;;;;12.90;8.13;;;;;;;;;;5072127;28;20543;-74
2022/11/24 11:02:52;;;;;;;13.30;7.70;;;;;;;;;;5065523;28;20866;-70
2022/11/24 11:05:45;;;;;;;16.83;9.10;;;;;;;;;;5067278;28;20448;-71
2022/11/24 11:08:33;;;;;;;13.80;8.13;;;;;;;;;;5064414;28;20448;-71
2022/11/24 11:11:28;;;;;;;10.60;7.63;;;;;;;;;;5064940;28;20472;-70
2022/11/24 11:14:30;;;;;;;14.23;7.23;;;;;;;;;;5045062;28;20886;-70
2022/11/24 11:17:34;;;;;;;13.17;8.20;;;;;;;;;;5054055;28;20453;-70
2022/11/24 11:20:27;;;;;;;14.23;7.73;;;;;;;;;;5067001;28;20448;-71
2022/11/24 11:23:20;;;;;;;11.47;7.40;;;;;;;;;;5055972;28;20485;-70
2022/11/24 11:26:19;;;;;;;11.70;7.70;;;;;;;;;;5059105;28;20464;-70
2022/11/24 11:29:18;;;;;;;11.13;7.67;;;;;;;;;;5064705;28;20457;-70
2022/11/24 11:32:27;;;;;;;12.93;7.30;;;;;;;;;;5063168;28;20484;-71
2022/11/24 11:35:40;;;;;;;12.07;7.90;;;;;;;;;;5062356;28;20448;-70
2022/11/24 11:38:30;;;;;;;12.47;7.40;;;;;;;;;;5067258;28;20499;-71
2022/11/24 11:41:22;;;;;;;12.37;7.80;;;;;;;;;;5057612;28;20929;-70
2022/11/24 11:44:17;;;;;;;18.33;8.30;;;;;;;;;;5066130;28;20499;-70
2022/11/24 11:47:11;;;;;;;13.77;7.30;;;;;;;;;;5063987;28;20990;-71
2022/11/24 11:50:00;;;;;;;16.60;8.53;;;;;;;;;;5065345;28;20472;-71
2022/11/24 11:53:00;;;;;;;14.50;7.97;;;;;;;;;;5064628;28;20481;-71
2022/11/24 11:55:54;;;;;;;13.10;7.90;;;;;;;;;;5058935;28;21785;-70
2022/11/24 11:58:49;;;;;;;15.10;8.17;;;;;;;;;;5067739;28;20875;-71
2022/11/24 12:01:57;;;;;;;10.77;8.03;;;;;;;;;;5057862;28;20473;-71
2022/11/24 12:04:51;;;;;;;12.30;7.03;;;;;;;;;;5047090;28;21215;-71
2022/11/24 12:07:48;;;;;;;16.67;8.90;;;;;;;;;;5055633;28;20450;-71
2022/11/24 12:10:41;;;;;;;10.37;7.73;;;;;;;;;;5060393;28;22489;-71
2022/11/24 12:13:45;;;;;;;15.43;8.27;;;;;;;;;;5054694;28;20469;-71
2022/11/24 12:16:41;;;;;;;16.87;8.37;;;;;;;;;;5062294;28;20482;-71
2022/11/24 12:19:39;;;;;;;9.70;7.80;;;;;;;;;;5056122;28;20983;-71
2022/11/24 12:22:31;;;;;;;13.90;8.47;;;;;;;;;;5057843;28;20477;-70
2022/11/24 12:25:26;;;;;;;15.80;7.30;;;;;;;;;;5047428;28;21642;-71
2022/11/24 12:28:26;;;;;;;17.53;8.10;;;;;;;;;;5073714;28;21659;-71
2022/11/24 12:31:32;;;;;;;15.00;8.23;;;;;;;;;;5054361;28;20515;-71
2022/11/24 12:34:25;;;;;;;13.60;6.70;;;;;;;;;;5059837;28;20576;-70
2022/11/24 12:37:21;;;;;;;13.47;6.67;;;;;;;;;;5056700;28;20498;-71
2022/11/24 12:40:14;;;;;;;13.17;6.97;;;;;;;;;;5066484;28;20463;-72
2022/11/24 12:43:08;;;;;;;11.17;6.87;;;;;;;;;;5057036;28;20616;-73
2022/11/24 12:46:02;;;;;;;8.33;5.70;;;;;;;;;;5064373;28;20453;-70
2022/11/24 12:48:57;;;;;;;12.20;6.40;;;;;;;;;;5074504;28;21751;-73
2022/11/24 12:51:48;;;;;;;16.07;6.00;;;;;;;;;;5077781;28;20477;-70
2022/11/24 12:54:39;;;;;;;11.77;6.90;;;;;;;;;;5075362;28;20458;-70
2022/11/24 12:57:33;;;;;;;13.83;6.20;;;;;;;;;;5066450;28;20457;-75
2022/11/24 13:00:23;;;;;;;10.90;6.13;;;;;;;;;;5054848;28;20450;-71
2022/11/24 13:03:19;;;;;;;9.47;6.60;;;;;;;;;;5059909;28;21027;-71
2022/11/24 13:06:11;;;;;;;9.70;5.80;;;;;;;;;;5060776;28;20450;-71
2022/11/24 13:09:00;;;;;;;12.13;7.20;;;;;;;;;;5071561;28;21914;-76
2022/11/24 13:11:51;;;;;;;10.20;7.10;;;;;;;;;;5065830;28;20696;-76
2022/11/24 13:14:43;;;;;;;11.87;6.90;;;;;;;;;;5074839;28;20462;-76
2022/11/24 13:17:33;;;;;;;9.43;7.23;;;;;;;;;;5078061;28;20463;-75
2022/11/24 13:20:43;;;;;;;9.37;7.30;;;;;;;;;;5056664;28;20477;-75
2022/11/24 13:23:31;;;;;;;13.63;7.90;;;;;;;;;;5072517;28;21157;-76
2022/11/24 13:26:29;;;;;;;11.73;7.20;;;;;;;;;;5071502;28;20446;-76
2022/11/24 13:29:31;;;;;;;10.43;7.00;;;;;;;;;;5073943;28;21467;-78
2022/11/24 13:32:47;;;;;;;12.20;6.50;;;;;;;;;;5077777;28;20590;-76
2022/11/24 13:35:36;;;;;;;10.30;6.13;;;;;;;;;;5050864;28;20491;-75
2022/11/24 13:41:31;;;;;;;9.27;6.73;;;;;;;;;;5071756;27;21106;-77
2022/11/24 13:44:25;;;;;;;10.70;6.13;;;;;;;;;;4991200;28;20457;-78
2022/11/24 13:47:33;;;;;;;11.20;6.70;;;;;;;;;;5007315;28;20456;-72
2022/11/24 13:50:43;;;;;;;8.80;6.00;;;;;;;;;;5002171;28;20973;-74
2022/11/24 13:53:32;;;;;;;8.70;6.30;;;;;;;;;;4977857;28;20476;-71
2022/11/24 13:56:23;;;;;;;11.90;6.63;;;;;;;;;;5004389;28;20507;-71
2022/11/24 13:59:17;;;;;;;9.80;7.03;;;;;;;;;;4999593;28;20441;-76
2022/11/24 14:02:19;;;;;;;10.70;6.97;;;;;;;;;;5027280;28;21026;-76
2022/11/24 14:05:13;;;;;;;10.60;6.73;;;;;;;;;;5042921;28;20461;-71
2022/11/24 14:08:02;;;;;;;13.47;6.80;;;;;;;;;;5049815;28;20465;-72
2022/11/24 14:10:51;;;;;;;10.93;6.90;;;;;;;;;;5034077;28;20565;-71
2022/11/24 14:13:39;;;;;;;9.13;7.00;;;;;;;;;;5048736;28;20478;-72
2022/11/24 14:16:28;;;;;;;17.13;6.60;;;;;;;;;;5034795;28;20458;-71
2022/11/24 14:19:21;;;;;;;9.13;5.80;;;;;;;;;;5032569;28;20477;-71
2022/11/24 14:22:20;;;;;;;8.90;6.20;;;;;;;;;;5044211;28;21141;-76
2022/11/24 14:25:19;;;;;;;10.50;6.37;;;;;;;;;;5039655;28;20544;-75
2022/11/24 14:28:15;;;;;;;9.50;6.33;;;;;;;;;;5050937;28;20502;-75
2022/11/24 14:31:09;;;;;;;13.27;6.70;;;;;;;;;;5049061;28;20473;-75
2022/11/24 14:34:13;;;;;;;16.03;6.93;;;;;;;;;;5037056;28;20466;-70
2022/11/24 14:37:03;;;;;;;10.87;6.83;;;;;;;;;;5035298;28;20453;-71
2022/11/24 14:39:53;;;;;;;13.70;7.53;;;;;;;;;;5041668;28;20568;-71
2022/11/24 14:42:48;;;;;;;9.93;6.00;;;;;;;;;;5045841;28;21195;-76
2022/11/24 14:45:47;;;;;;;12.43;6.63;;;;;;;;;;5047024;28;20525;-75
2022/11/24 14:48:37;;;;;;;13.57;6.80;;;;;;;;;;5046636;28;20458;-75
2022/11/24 14:51:26;;;;;;;15.43;6.40;;;;;;;;;;5031347;28;20569;-75
2022/11/24 14:54:18;;;;;;;13.50;6.93;;;;;;;;;;5032578;28;20467;-75
2022/11/24 14:57:07;;;;;;;9.53;6.23;;;;;;;;;;5030949;28;20459;-69
2022/11/24 15:00:08;;;;;;;11.70;6.40;;;;;;;;;;5023021;28;20943;-70
2022/11/24 15:03:07;;;;;;;8.47;6.40;;;;;;;;;;5008397;28;20482;-69
2022/11/24 15:05:59;;;;;;;13.23;6.03;;;;;;;;;;5023256;28;20474;-69
2022/11/24 15:08:49;;;;;;;13.33;6.37;;;;;;;;;;5028793;28;20509;-69
2022/11/24 15:11:41;;;;;;;6.10;5.50;;;;;;;;;;5029531;28;20989;-75
2022/11/24 15:14:47;;;;;;;9.77;6.50;;;;;;;;;;5021035;28;20463;-68
2022/11/24 15:17:36;;;;;;;9.30;6.47;;;;;;;;;;5015639;28;20463;-74
2022/11/24 15:20:26;;;;;;;8.80;5.83;;;;;;;;;;5030278;28;20561;-72
2022/11/24 15:23:21;;;;;;;11.23;5.43;;;;;;;;;;5034835;28;20480;-76
2022/11/24 15:26:27;;;;;;;11.70;6.57;;;;;;;;;;5022341;28;20979;-73
2022/11/24 15:29:24;;;;;;;9.80;6.20;;;;;;;;;;5029992;28;20526;-73
2022/11/24 15:32:14;;;;;;;12.60;5.73;;;;;;;;;;5027798;28;20515;-73
2022/11/24 15:35:02;;;;;;;13.70;5.77;;;;;;;;;;5030194;28;21042;-69
2022/11/24 15:37:51;;;;;;;12.17;6.70;;;;;;;;;;5028798;28;20463;-69
2022/11/24 15:40:40;;;;;;;11.03;6.60;;;;;;;;;;5028276;28;20487;-69
2022/11/24 15:43:30;;;;;;;9.83;5.97;;;;;;;;;;5024510;28;20884;-69
2022/11/24 15:46:20;;;;;;;12.60;6.40;;;;;;;;;;5027384;28;20452;-69
2022/11/24 15:49:11;;;;;;;16.47;6.47;;;;;;;;;;5032791;28;20467;-69
2022/11/24 15:52:03;;;;;;;13.70;5.87;;;;;;;;;;5024764;28;21015;-69
2022/11/24 15:54:53;;;;;;;12.07;5.67;;;;;;;;;;5037500;28;20536;-68
2022/11/24 15:57:43;;;;;;;10.13;5.60;;;;;;;;;;5046755;28;20460;-73
2022/11/24 16:00:32;;;;;;;9.60;5.90;;;;;;;;;;5051358;28;20480;-68
2022/11/24 16:03:25;;;;;;;11.33;6.00;;;;;;;;;;5037956;28;20489;-68
2022/11/24 16:06:33;;;;;;;15.63;6.83;;;;;;;;;;5027849;28;20455;-68
2022/11/24 16:09:22;;;;;;;8.57;5.50;;;;;;;;;;5025644;28;20538;-68
2022/11/24 16:12:14;;;;;;;10.10;6.70;;;;;;;;;;5033324;28;20483;-72
2022/11/24 16:15:02;;;;;;;13.17;6.07;;;;;;;;;;5027441;28;20443;-69
2022/11/24 16:17:53;;;;;;;10.80;7.13;;;;;;;;;;5033449;28;20503;-69
2022/11/24 16:20:43;;;;;;;10.83;6.10;;;;;;;;;;5038419;28;20503;-69
2022/11/24 16:23:32;;;;;;;9.20;6.43;;;;;;;;;;5030375;28;20491;-69
2022/11/24 16:26:20;;;;;;;7.33;5.90;;;;;;;;;;5039312;28;20459;-70
2022/11/24 16:29:09;;;;;;;8.63;5.93;;;;;;;;;;5036980;28;20448;-69
2022/11/24 16:31:57;;;;;;;8.13;5.70;;;;;;;;;;5050254;28;20482;-69
2022/11/24 16:34:49;;;;;;;11.03;6.83;;;;;;;;;;5045479;28;20443;-69
2022/11/24 16:37:39;;;;;;;14.10;6.97;;;;;;;;;;5045916;28;20741;-69
2022/11/24 16:40:27;;;;;;;9.60;6.17;;;;;;;;;;5037257;28;20464;-69
2022/11/24 16:43:16;;;;;;;9.67;6.33;;;;;;;;;;5017208;28;20475;-69
2022/11/24 16:46:16;;;;;;;11.73;7.07;;;;;;;;;;5030688;28;20456;-69
2022/11/24 16:49:04;;;;;;;11.53;6.80;;;;;;;;;;5026076;28;20458;-69
2022/11/24 16:51:53;;;;;;;10.20;7.00;;;;;;;;;;5015831;28;20499;-69
2022/11/24 16:54:43;;;;;;;16.20;7.53;;;;;;;;;;5030120;28;20447;-69
2022/11/24 16:57:32;;;;;;;10.43;6.50;;;;;;;;;;5025769;28;20455;-69
2022/11/24 17:00:20;;;;;;;8.40;7.23;;;;;;;;;;5027049;28;20471;-69
2022/11/24 17:03:09;;;;;;;11.17;7.13;;;;;;;;;;5015888;28;21011;-68
2022/11/24 17:05:58;;;;;;;11.17;6.73;;;;;;;;;;5029444;28;20463;-69
2022/11/24 17:08:47;;;;;;;9.70;6.80;;;;;;;;;;5020998;28;20462;-69
2022/11/24 17:11:37;;;;;;;13.50;7.40;;;;;;;;;;5018391;28;21536;-69
2022/11/24 17:14:25;;;;;;;11.60;7.20;;;;;;;;;;5025578;28;20447;-69